Time;durP1;ratioP1;P1;durP2;ratioP2;P2;SDS_P1;SDS_P2;PMS_P1;PMS_P2;Temp;Humidity;BMP_temperature;BMP_pressure;BME280_temperature;BME280_humidity;BME280_pressure;Samples;Min_cycle;Max_cycle;Signal;HPM_P1;HPM_P2
2023/03/28 00:00:11;;;;;;;11.38;2.85;;;;;;;-145.50;100.00;65435.88;4910547;29;20054;-64
2023/03/28 00:02:37;;;;;;;6.80;2.33;;;;;;;-145.50;100.00;65435.88;4903821;29;20060;-66
2023/03/28 00:05:04;;;;;;;12.57;2.28;;;;;;;-145.50;100.00;65435.88;4903218;29;20048;-64
2023/03/28 00:07:31;;;;;;;8.43;2.15;;;;;;;-145.50;100.00;65435.88;4902344;29;20060;-65
2023/03/28 00:09:57;;;;;;;10.15;2.63;;;;;;;-145.50;100.00;65435.88;4888533;29;20047;-65
2023/03/28 00:12:24;;;;;;;14.18;2.88;;;;;;;-145.50;100.00;65435.88;4908708;29;20075;-64
2023/03/28 00:14:50;;;;;;;8.27;2.25;;;;;;;-145.50;100.00;65435.88;4905350;29;20154;-65
2023/03/28 00:17:17;;;;;;;10.85;2.67;;;;;;;-145.50;100.00;65435.88;4910584;29;20126;-65
2023/03/28 00:19:45;;;;;;;7.78;2.33;;;;;;;-145.50;100.00;65435.88;4902623;29;20706;-64
2023/03/28 00:22:12;;;;;;;10.88;2.35;;;;;;;-145.50;100.00;65435.88;4902645;29;20056;-65
2023/03/28 00:24:38;;;;;;;9.18;2.47;;;;;;;-145.50;100.00;65435.88;4903187;29;20050;-65
2023/03/28 00:27:06;;;;;;;6.85;2.67;;;;;;;-145.50;100.00;65435.88;4909562;29;20047;-64
2023/03/28 00:29:33;;;;;;;11.27;2.78;;;;;;;-145.50;100.00;65435.88;4916190;29;20420;-65
2023/03/28 00:31:59;;;;;;;7.90;2.28;;;;;;;-145.50;100.00;65435.88;4907675;29;20062;-64
2023/03/28 00:34:26;;;;;;;10.20;2.55;;;;;;;-145.50;100.00;65435.88;4910191;29;20730;-64
2023/03/28 00:36:55;;;;;;;9.60;2.45;;;;;;;-145.50;100.00;65435.88;4903557;29;20095;-65
2023/03/28 00:39:22;;;;;;;8.60;2.33;;;;;;;-145.50;100.00;65435.88;4912800;29;20056;-65
2023/03/28 00:41:49;;;;;;;8.13;2.38;;;;;;;-145.50;100.00;65435.88;4907761;29;20059;-65
2023/03/28 00:44:51;;;;;;;6.50;2.40;;;;;;;-145.50;100.00;65435.88;4910143;29;20048;-64
2023/03/28 00:47:24;;;;;;;8.00;2.00;;;;;;;-145.50;100.00;65435.88;4912711;29;20056;-64
2023/03/28 00:49:59;;;;;;;8.10;1.95;;;;;;;-145.50;100.00;65435.88;4903512;29;20659;-65
2023/03/28 00:52:30;;;;;;;9.05;2.08;;;;;;;-145.50;100.00;65435.88;4913122;29;20083;-64
2023/03/28 00:54:58;;;;;;;9.23;2.20;;;;;;;-145.50;100.00;65435.88;4917788;29;20048;-64
2023/03/28 00:57:26;;;;;;;13.60;2.23;;;;;;;-145.50;100.00;65435.88;4916191;29;20048;-64
2023/03/28 00:59:53;;;;;;;;;;;;;;;-145.50;100.00;65435.88;4906880;29;21046;-65
2023/03/28 01:02:20;;;;;;;6.95;2.08;;;;;;;-145.50;100.00;65435.88;4909592;29;19931;-66
2023/03/28 01:05:06;;;;;;;5.93;2.33;;;;;;;-145.50;100.00;65435.88;4906487;29;20060;-66
2023/03/28 01:07:40;;;;;;;8.00;2.45;;;;;;;-145.50;100.00;65435.88;4914096;29;20483;-65
2023/03/28 01:10:11;;;;;;;8.95;2.42;;;;;;;-145.50;100.00;65435.88;4927460;29;20056;-66
2023/03/28 01:12:40;;;;;;;6.00;2.13;;;;;;;-145.50;100.00;65435.88;4909484;29;20123;-65
2023/03/28 01:15:08;;;;;;;8.13;2.45;;;;;;;-145.50;100.00;65435.88;4909113;29;20052;-65
2023/03/28 01:17:35;;;;;;;6.80;2.70;;;;;;;-145.50;100.00;65435.88;4903502;29;20052;-65
2023/03/28 01:20:34;;;;;;;4.72;1.88;;;;;;;-145.50;100.00;65435.88;4912344;29;20479;-64
2023/03/28 01:23:25;;;;;;;10.55;2.42;;;;;;;-145.50;100.00;65435.88;4906911;29;20091;-64
2023/03/28 01:26:17;;;;;;;9.73;2.80;;;;;;;-145.50;100.00;65435.88;4913779;29;20055;-65
2023/03/28 01:29:08;;;;;;;5.22;2.45;;;;;;;-145.50;100.00;65435.88;4900869;29;20717;-66
2023/03/28 01:32:19;;;;;;;8.13;2.10;;;;;;;-145.50;100.00;65435.88;4908718;29;20469;-64
2023/03/28 01:35:20;;;;;;;7.50;2.20;;;;;;;-145.50;100.00;65435.88;4887659;29;20044;-64
2023/03/28 01:37:55;;;;;;;9.15;2.50;;;;;;;-145.50;100.00;65435.88;4912249;29;20058;-63
2023/03/28 01:40:50;;;;;;;8.10;2.38;;;;;;;-145.50;100.00;65435.88;4907302;29;20056;-64
2023/03/28 01:43:36;;;;;;;4.70;2.10;;;;;;;-145.50;100.00;65435.88;4902607;29;20083;-64
2023/03/28 01:46:19;;;;;;;8.90;2.35;;;;;;;-145.50;100.00;65435.88;4902879;29;20055;-64
2023/03/28 01:49:23;;;;;;;15.73;2.65;;;;;;;-145.50;100.00;65435.88;4911474;29;20048;-64
2023/03/28 01:52:00;;;;;;;7.57;2.88;;;;;;;-145.50;100.00;65435.88;4905890;29;20058;-65
2023/03/28 01:54:48;;;;;;;5.05;2.15;;;;;;;-145.50;100.00;65435.88;4907252;29;20052;-64
2023/03/28 01:57:23;;;;;;;7.65;2.50;;;;;;;-145.50;100.00;65435.88;4899829;29;20063;-63
2023/03/28 01:59:55;;;;;;;8.00;2.42;;;;;;;-145.50;100.00;65435.88;4907387;29;20088;-64
2023/03/28 02:02:37;;;;;;;7.53;2.35;;;;;;;-145.50;100.00;65435.88;4905889;29;20119;-64
2023/03/28 02:05:09;;;;;;;3.78;2.20;;;;;;;-145.50;100.00;65435.88;4912534;29;20085;-65
2023/03/28 02:07:43;;;;;;;9.50;2.90;;;;;;;-145.50;100.00;65435.88;4906469;29;20056;-64
2023/03/28 02:10:12;;;;;;;10.10;2.20;;;;;;;-145.50;100.00;65435.88;4913159;29;20054;-67
2023/03/28 02:12:52;;;;;;;10.43;2.13;;;;;;;-145.50;100.00;65435.88;4904972;29;20048;-67
2023/03/28 02:15:22;;;;;;;7.28;2.72;;;;;;;-145.50;100.00;65435.88;4905280;29;20047;-67
2023/03/28 02:17:53;;;;;;;11.15;2.47;;;;;;;-145.50;100.00;65435.88;4911928;29;20048;-67
2023/03/28 02:20:24;;;;;;;9.25;2.28;;;;;;;-145.50;100.00;65435.88;4906360;29;20104;-67
2023/03/28 02:22:57;;;;;;;9.48;2.72;;;;;;;-145.50;100.00;65435.88;4904904;29;20493;-68
2023/03/28 02:25:25;;;;;;;10.20;2.97;;;;;;;-145.50;100.00;65435.88;4901649;29;20541;-67
2023/03/28 02:27:56;;;;;;;4.38;2.30;;;;;;;-145.50;100.00;65435.88;4905945;29;20131;-67
2023/03/28 02:30:22;;;;;;;6.07;2.70;;;;;;;-145.50;100.00;65435.88;4917334;29;20060;-63
2023/03/28 02:32:50;;;;;;;6.88;2.53;;;;;;;-145.50;100.00;65435.88;4909851;29;20056;-64
2023/03/28 02:35:22;;;;;;;11.70;2.80;;;;;;;-145.50;100.00;65435.88;4907756;29;20052;-63
2023/03/28 02:37:58;;;;;;;6.40;2.10;;;;;;;-145.50;100.00;65435.88;4905273;29;20515;-65
2023/03/28 02:40:42;;;;;;;8.90;2.47;;;;;;;-145.50;100.00;65435.88;4905357;29;20048;-65
2023/03/28 02:43:42;;;;;;;13.07;2.90;;;;;;;-145.50;100.00;65435.88;4892645;29;20425;-63
2023/03/28 02:46:17;;;;;;;9.27;2.45;;;;;;;-145.50;100.00;65435.88;4903906;29;20060;-64
2023/03/28 02:48:49;;;;;;;7.50;2.47;;;;;;;-145.50;100.00;65435.88;4904270;29;20104;-63
2023/03/28 02:51:29;;;;;;;5.60;2.38;;;;;;;-145.50;100.00;65435.88;4910877;29;20100;-63
2023/03/28 02:54:20;;;;;;;9.45;3.72;;;;;;;-145.50;100.00;65435.88;4898282;29;20056;-64
2023/03/28 02:57:00;;;;;;;8.30;2.70;;;;;;;-145.50;100.00;65435.88;4903934;29;20425;-63
2023/03/28 02:59:41;;;;;;;11.68;3.10;;;;;;;-145.50;100.00;65435.88;4905942;29;20131;-64
2023/03/28 03:02:08;;;;;;;8.70;2.45;;;;;;;-145.50;100.00;65435.88;4910724;29;20060;-63
2023/03/28 03:04:34;;;;;;;8.82;2.80;;;;;;;-145.50;100.00;65435.88;4907320;29;20052;-65
2023/03/28 03:07:01;;;;;;;11.15;2.75;;;;;;;-145.50;100.00;65435.88;4904245;29;20068;-64
2023/03/28 03:09:28;;;;;;;13.45;3.15;;;;;;;-145.50;100.00;65435.88;4906784;29;20063;-64
2023/03/28 03:11:54;;;;;;;9.10;3.28;;;;;;;-145.50;100.00;65435.88;4904966;29;20056;-64
2023/03/28 03:14:21;;;;;;;12.27;2.95;;;;;;;-145.50;100.00;65435.88;4911116;29;20090;-63
2023/03/28 03:16:50;;;;;;;6.70;2.55;;;;;;;-145.50;100.00;65435.88;4905210;29;20086;-63
2023/03/28 03:19:17;;;;;;;7.53;2.40;;;;;;;-145.50;100.00;65435.88;4904483;29;20056;-63
2023/03/28 03:21:44;;;;;;;8.38;3.50;;;;;;;-145.50;100.00;65435.88;4903000;29;20052;-65
2023/03/28 03:24:10;;;;;;;9.32;2.65;;;;;;;-145.50;100.00;65435.88;4903336;29;20056;-65
2023/03/28 03:26:37;;;;;;;9.07;3.05;;;;;;;-145.50;100.00;65435.88;4909859;29;20048;-63
2023/03/28 03:29:04;;;;;;;8.55;3.05;;;;;;;-145.50;100.00;65435.88;4904685;29;20091;-63
2023/03/28 03:31:31;;;;;;;6.97;3.08;;;;;;;-145.50;100.00;65435.88;4911189;29;20052;-63
2023/03/28 03:33:58;;;;;;;7.40;2.63;;;;;;;-145.50;100.00;65435.88;4904687;29;20081;-64
2023/03/28 03:36:25;;;;;;;9.02;3.03;;;;;;;-145.50;100.00;65435.88;4905199;29;20056;-65
2023/03/28 03:38:52;;;;;;;10.10;3.38;;;;;;;-145.50;100.00;65435.88;4904617;29;20059;-65
2023/03/28 03:41:19;;;;;;;8.82;2.90;;;;;;;-145.50;100.00;65435.88;4907043;29;20525;-64
2023/03/28 03:43:45;;;;;;;8.45;2.88;;;;;;;-145.50;100.00;65435.88;4909168;29;20104;-64
2023/03/28 03:46:12;;;;;;;12.18;3.33;;;;;;;-145.50;100.00;65435.88;4903049;29;20051;-65
2023/03/28 03:48:39;;;;;;;8.43;3.28;;;;;;;-145.50;100.00;65435.88;4906027;29;20068;-65
2023/03/28 03:51:16;;;;;;;6.30;3.10;;;;;;;-145.50;100.00;65435.88;4900308;29;20498;-63
2023/03/28 03:53:43;;;;;;;7.75;2.85;;;;;;;-145.50;100.00;65435.88;4909718;29;20131;-63
2023/03/28 03:56:10;;;;;;;7.85;3.03;;;;;;;-145.50;100.00;65435.88;4907267;29;20055;-63
2023/03/28 03:58:36;;;;;;;7.72;2.80;;;;;;;-145.50;100.00;65435.88;4906757;29;20052;-66
2023/03/28 04:01:03;;;;;;;6.90;3.20;;;;;;;-145.50;100.00;65435.88;4909959;29;20059;-64
2023/03/28 04:03:31;;;;;;;8.90;2.70;;;;;;;-145.50;100.00;65435.88;4899516;29;20060;-64
2023/03/28 04:05:57;;;;;;;8.73;3.23;;;;;;;-145.50;100.00;65435.88;4906636;29;20051;-64
2023/03/28 04:08:24;;;;;;;8.90;3.38;;;;;;;-145.50;100.00;65435.88;4904125;29;20331;-64
2023/03/28 04:10:51;;;;;;;5.95;3.20;;;;;;;-145.50;100.00;65435.88;4909238;29;20058;-65
2023/03/28 04:13:17;;;;;;;7.20;3.22;;;;;;;-145.50;100.00;65435.88;4907114;29;20107;-65
2023/03/28 04:15:46;;;;;;;9.90;4.03;;;;;;;-145.50;100.00;65435.88;4906564;29;20063;-64
2023/03/28 04:18:14;;;;;;;8.05;3.20;;;;;;;-145.50;100.00;65435.88;4909781;29;20048;-64
2023/03/28 04:20:42;;;;;;;7.43;3.53;;;;;;;-145.50;100.00;65435.88;4901437;29;20082;-65
2023/03/28 04:23:09;;;;;;;10.30;3.13;;;;;;;-145.50;100.00;65435.88;4909685;29;20474;-64
2023/03/28 04:25:35;;;;;;;6.93;3.28;;;;;;;-145.50;100.00;65435.88;4907079;29;20044;-63
2023/03/28 04:28:02;;;;;;;8.50;3.65;;;;;;;-145.50;100.00;65435.88;4902898;29;20084;-63
2023/03/28 04:30:28;;;;;;;5.80;2.70;;;;;;;-145.50;100.00;65435.88;4908696;29;20059;-63
2023/03/28 04:32:55;;;;;;;6.15;2.88;;;;;;;-145.50;100.00;65435.88;4903282;29;20148;-63
2023/03/28 04:35:22;;;;;;;9.43;3.58;;;;;;;-145.50;100.00;65435.88;4909830;29;20052;-63
2023/03/28 04:37:49;;;;;;;8.65;3.55;;;;;;;-145.50;100.00;65435.88;4903571;29;20047;-64
2023/03/28 04:40:16;;;;;;;10.90;3.72;;;;;;;-145.50;100.00;65435.88;4905576;29;20119;-63
2023/03/28 04:42:43;;;;;;;9.18;3.20;;;;;;;-145.50;100.00;65435.88;4899543;29;20508;-64
2023/03/28 04:45:09;;;;;;;6.60;2.92;;;;;;;-145.50;100.00;65435.88;4909840;29;20044;-64
2023/03/28 04:47:38;;;;;;;14.45;4.30;;;;;;;-145.50;100.00;65435.88;4909945;29;20139;-66
2023/03/28 04:50:08;;;;;;;10.40;3.20;;;;;;;-145.50;100.00;65435.88;4904467;29;20074;-63
2023/03/28 04:52:35;;;;;;;8.77;3.75;;;;;;;-145.50;100.00;65435.88;4909075;29;20135;-63
2023/03/28 04:55:02;;;;;;;10.95;4.55;;;;;;;-145.50;100.00;65435.88;4897832;29;20074;-63
2023/03/28 04:57:29;;;;;;;8.32;3.40;;;;;;;-145.50;100.00;65435.88;4907405;29;20489;-63
2023/03/28 04:59:55;;;;;;;6.18;3.45;;;;;;;-145.50;100.00;65435.88;4903686;29;20089;-63
2023/03/28 05:02:22;;;;;;;8.18;3.20;;;;;;;-145.50;100.00;65435.88;4908986;29;20059;-63
2023/03/28 05:04:49;;;;;;;8.38;4.30;;;;;;;-145.50;100.00;65435.88;4908697;29;20056;-63
2023/03/28 05:07:15;;;;;;;11.65;4.22;;;;;;;-145.50;100.00;65435.88;4901646;29;20143;-63
2023/03/28 05:09:42;;;;;;;7.88;3.70;;;;;;;-145.50;100.00;65435.88;4903683;29;20067;-64
2023/03/28 05:12:11;;;;;;;12.05;4.32;;;;;;;-145.50;100.00;65435.88;4903611;29;20052;-63
2023/03/28 05:14:39;;;;;;;8.40;3.33;;;;;;;-145.50;100.00;65435.88;4910406;29;20052;-64
2023/03/28 05:17:05;;;;;;;9.97;3.30;;;;;;;-145.50;100.00;65435.88;4902207;29;20078;-63
2023/03/28 05:19:32;;;;;;;9.23;3.67;;;;;;;-145.50;100.00;65435.88;4913248;29;20538;-64
2023/03/28 05:21:58;;;;;;;10.52;4.28;;;;;;;-145.50;100.00;65435.88;4902500;29;20055;-62
2023/03/28 05:24:25;;;;;;;8.93;3.58;;;;;;;-145.50;100.00;65435.88;4908419;29;20060;-64
2023/03/28 05:26:52;;;;;;;6.25;4.22;;;;;;;-145.50;100.00;65435.88;4911206;29;20071;-64
2023/03/28 05:29:19;;;;;;;15.00;4.13;;;;;;;-145.50;100.00;65435.88;4907424;29;20060;-64
2023/03/28 05:31:45;;;;;;;8.20;3.42;;;;;;;-145.50;100.00;65435.88;4912012;29;20056;-64
2023/03/28 05:34:12;;;;;;;8.93;3.58;;;;;;;-145.50;100.00;65435.88;4911354;29;20444;-64
2023/03/28 05:36:38;;;;;;;10.55;3.50;;;;;;;-145.50;100.00;65435.88;4907911;29;20063;-64
2023/03/28 05:39:05;;;;;;;9.70;3.75;;;;;;;-145.50;100.00;65435.88;4908322;29;20143;-64
2023/03/28 05:41:32;;;;;;;15.73;4.20;;;;;;;-145.50;100.00;65435.88;4908389;29;20532;-64
2023/03/28 05:43:59;;;;;;;9.23;4.90;;;;;;;-145.50;100.00;65435.88;4910397;29;20056;-61
2023/03/28 05:46:25;;;;;;;12.23;6.63;;;;;;;-145.50;100.00;65435.88;4905051;29;20056;-65
2023/03/28 05:48:52;;;;;;;12.70;6.78;;;;;;;-145.50;100.00;65435.88;4911299;29;20406;-65
2023/03/28 05:51:18;;;;;;;12.68;5.88;;;;;;;-145.50;100.00;65435.88;4900093;29;20127;-64
2023/03/28 05:53:45;;;;;;;9.20;4.28;;;;;;;-145.50;100.00;65435.88;4911119;29;20779;-65
2023/03/28 05:56:11;;;;;;;9.48;4.35;;;;;;;-145.50;100.00;65435.88;4912304;29;20124;-64
2023/03/28 05:58:39;;;;;;;11.15;3.53;;;;;;;-145.50;100.00;65435.88;4905780;29;20052;-63
2023/03/28 06:01:06;;;;;;;10.07;3.97;;;;;;;-145.50;100.00;65435.88;4912325;29;20108;-64
2023/03/28 06:03:38;;;;;;;7.63;3.58;;;;;;;-145.50;100.00;65435.88;4902858;29;20157;-64
2023/03/28 06:06:05;;;;;;;9.93;3.92;;;;;;;-145.50;100.00;65435.88;4907178;29;20079;-65
2023/03/28 06:08:32;;;;;;;9.43;3.35;;;;;;;-145.50;100.00;65435.88;4906514;29;20139;-64
2023/03/28 06:11:01;;;;;;;12.63;3.38;;;;;;;-145.50;100.00;65435.88;4910158;29;20059;-64
2023/03/28 06:13:28;;;;;;;10.48;3.90;;;;;;;-145.50;100.00;65435.88;4909541;29;20056;-65
2023/03/28 06:15:55;;;;;;;10.18;4.03;;;;;;;-145.50;100.00;65435.88;4908371;29;20048;-63
2023/03/28 06:18:21;;;;;;;6.50;3.05;;;;;;;-145.50;100.00;65435.88;4907746;29;20055;-66
2023/03/28 06:20:48;;;;;;;8.90;4.35;;;;;;;-145.50;100.00;65435.88;4900976;29;20052;-61
2023/03/28 06:23:14;;;;;;;14.77;3.97;;;;;;;-145.50;100.00;65435.88;4911550;29;20062;-63
2023/03/28 06:25:42;;;;;;;10.85;4.03;;;;;;;-145.50;100.00;65435.88;4904588;29;20068;-65
2023/03/28 06:28:09;;;;;;;9.40;3.60;;;;;;;-145.50;100.00;65435.88;4911353;29;20055;-64
2023/03/28 06:30:35;;;;;;;12.98;4.05;;;;;;;-145.50;100.00;65435.88;4907034;29;20067;-63
2023/03/28 06:33:02;;;;;;;8.30;3.60;;;;;;;-145.50;100.00;65435.88;4904973;29;20443;-64
2023/03/28 06:35:28;;;;;;;10.75;4.43;;;;;;;-145.50;100.00;65435.88;4890859;29;20564;-64
2023/03/28 06:37:55;;;;;;;10.75;4.13;;;;;;;-145.50;100.00;65435.88;4905060;29;20111;-64
2023/03/28 06:40:21;;;;;;;9.35;4.05;;;;;;;-145.50;100.00;65435.88;4911571;29;20151;-64
2023/03/28 06:42:48;;;;;;;7.90;3.97;;;;;;;-145.50;100.00;65435.88;4904978;29;20062;-64
2023/03/28 06:45:15;;;;;;;9.45;3.83;;;;;;;-145.50;100.00;65435.88;4909034;29;20048;-64
2023/03/28 06:47:41;;;;;;;13.85;5.28;;;;;;;-145.50;100.00;65435.88;4900799;29;20495;-65
2023/03/28 06:50:08;;;;;;;8.52;3.92;;;;;;;-145.50;100.00;65435.88;4910702;29;20063;-64
2023/03/28 06:52:35;;;;;;;10.10;3.65;;;;;;;-145.50;100.00;65435.88;4911270;29;20048;-64
2023/03/28 06:55:02;;;;;;;9.25;3.95;;;;;;;-145.50;100.00;65435.88;4904472;29;20056;-65
2023/03/28 06:57:29;;;;;;;7.95;3.92;;;;;;;-145.50;100.00;65435.88;4911073;29;20492;-66
2023/03/28 06:59:55;;;;;;;12.50;4.03;;;;;;;-145.50;100.00;65435.88;4900767;29;20058;-64
2023/03/28 07:02:22;;;;;;;8.75;3.63;;;;;;;-145.50;100.00;65435.88;4906630;29;20067;-64
2023/03/28 07:04:49;;;;;;;7.43;3.97;;;;;;;-145.50;100.00;65435.88;4909893;29;20052;-64
2023/03/28 07:07:15;;;;;;;12.50;3.67;;;;;;;-145.50;100.00;65435.88;4905451;29;20048;-64
2023/03/28 07:09:42;;;;;;;11.23;4.00;;;;;;;-145.50;100.00;65435.88;4910527;29;20417;-64
2023/03/28 07:12:09;;;;;;;13.38;4.53;;;;;;;-145.50;100.00;65435.88;4905939;29;20540;-64
2023/03/28 07:14:35;;;;;;;8.68;4.18;;;;;;;-145.50;100.00;65435.88;4906584;29;20055;-65
2023/03/28 07:17:02;;;;;;;10.25;3.92;;;;;;;-145.50;100.00;65435.88;4901466;29;20055;-65
2023/03/28 07:19:28;;;;;;;9.80;4.05;;;;;;;-145.50;100.00;65435.88;4910692;29;20549;-64
2023/03/28 07:21:55;;;;;;;10.60;3.85;;;;;;;-145.50;100.00;65435.88;4910657;29;20127;-64
2023/03/28 07:24:21;;;;;;;11.63;4.10;;;;;;;-145.50;100.00;65435.88;4905461;29;20067;-66
2023/03/28 07:26:48;;;;;;;9.95;4.00;;;;;;;-145.50;100.00;65435.88;4910040;29;20083;-65
2023/03/28 07:29:15;;;;;;;9.80;3.97;;;;;;;-145.50;100.00;65435.88;4899528;29;20138;-65
2023/03/28 07:31:41;;;;;;;15.00;4.03;;;;;;;-145.50;100.00;65435.88;4911075;29;20055;-66
2023/03/28 07:34:08;;;;;;;11.95;4.53;;;;;;;-145.50;100.00;65435.88;4905107;29;20064;-65
2023/03/28 07:36:38;;;;;;;6.25;3.60;;;;;;;-145.50;100.00;65435.88;4909439;29;20052;-65
2023/03/28 07:39:05;;;;;;;10.20;3.90;;;;;;;-145.50;100.00;65435.88;4910864;29;20585;-65
2023/03/28 07:41:31;;;;;;;8.40;3.85;;;;;;;-145.50;100.00;65435.88;4901018;29;20056;-66
2023/03/28 07:43:58;;;;;;;12.05;3.53;;;;;;;-145.50;100.00;65435.88;4905802;29;20044;-65
2023/03/28 07:46:25;;;;;;;9.85;4.00;;;;;;;-145.50;100.00;65435.88;4904089;29;20444;-65
2023/03/28 07:48:53;;;;;;;9.13;4.07;;;;;;;-145.50;100.00;65435.88;4910407;29;20060;-67
2023/03/28 07:51:19;;;;;;;10.03;4.23;;;;;;;-145.50;100.00;65435.88;4904506;29;20058;-65
2023/03/28 07:53:46;;;;;;;11.55;4.20;;;;;;;-145.50;100.00;65435.88;4910733;29;20569;-65
2023/03/28 07:56:13;;;;;;;11.55;4.53;;;;;;;-145.50;100.00;65435.88;4906348;29;20100;-66
2023/03/28 07:58:40;;;;;;;8.80;4.32;;;;;;;-145.50;100.00;65435.88;4899609;29;20056;-64
2023/03/28 08:01:09;;;;;;;12.43;4.40;;;;;;;-145.50;100.00;65435.88;4910216;29;20059;-67
2023/03/28 08:03:36;;;;;;;8.55;3.58;;;;;;;-145.50;100.00;65435.88;4900718;29;20055;-65
2023/03/28 08:06:05;;;;;;;9.15;3.78;;;;;;;-145.50;100.00;65435.88;4910661;29;20055;-65
2023/03/28 08:08:45;;;;;;;9.60;4.20;;;;;;;-145.50;100.00;65435.88;4904598;29;20054;-66
2023/03/28 08:11:12;;;;;;;9.77;4.10;;;;;;;-145.50;100.00;65435.88;4903625;29;20107;-65
2023/03/28 08:13:39;;;;;;;9.02;3.90;;;;;;;-145.50;100.00;65435.88;4908356;29;20159;-65
2023/03/28 08:16:06;;;;;;;12.80;3.80;;;;;;;-145.50;100.00;65435.88;4905325;29;20045;-66
2023/03/28 08:18:32;;;;;;;7.30;3.70;;;;;;;-145.50;100.00;65435.88;4910325;29;20059;-65
2023/03/28 08:21:02;;;;;;;8.48;4.15;;;;;;;-145.50;100.00;65435.88;4903736;29;20140;-65
2023/03/28 08:23:29;;;;;;;10.40;3.80;;;;;;;-145.50;100.00;65435.88;4907375;29;20052;-66
2023/03/28 08:26:03;;;;;;;8.13;3.17;;;;;;;-145.50;100.00;65435.88;4899448;29;20048;-65
2023/03/28 08:28:31;;;;;;;11.45;3.78;;;;;;;-145.50;100.00;65435.88;4910116;29;20050;-66
2023/03/28 08:30:58;;;;;;;8.52;3.20;;;;;;;-145.50;100.00;65435.88;4904945;29;20417;-65
2023/03/28 08:33:25;;;;;;;9.88;3.72;;;;;;;-145.50;100.00;65435.88;4907629;29;20063;-65
2023/03/28 08:35:52;;;;;;;7.43;3.22;;;;;;;-145.50;100.00;65435.88;4910331;29;20417;-65
2023/03/28 08:38:19;;;;;;;9.75;3.45;;;;;;;-145.50;100.00;65435.88;4900271;29;20480;-64
2023/03/28 08:41:06;;;;;;;9.55;2.97;;;;;;;-145.50;100.00;65435.88;4905739;29;20156;-64
2023/03/28 08:44:17;;;;;;;8.18;3.10;;;;;;;-145.50;100.00;65435.88;4901929;29;20143;-64
2023/03/28 08:46:45;;;;;;;10.25;3.08;;;;;;;-145.50;100.00;65435.88;4906479;29;20663;-64
2023/03/28 08:49:16;;;;;;;13.82;3.25;;;;;;;-145.50;100.00;65435.88;4905086;29;20060;-65
2023/03/28 08:51:46;;;;;;;7.03;2.40;;;;;;;-145.50;100.00;65435.88;4909055;29;20064;-64
2023/03/28 08:54:38;;;;;;;7.05;2.53;;;;;;;-145.50;100.00;65435.88;4903967;29;20073;-64
2023/03/28 08:57:06;;;;;;;9.30;2.55;;;;;;;-145.50;100.00;65435.88;4913398;29;20501;-63
2023/03/28 08:59:40;;;;;;;5.30;2.10;;;;;;;-145.50;100.00;65435.88;4907668;29;20052;-64
2023/03/28 09:02:21;;;;;;;5.28;2.28;;;;;;;-145.50;100.00;65435.88;4905312;29;20155;-65
2023/03/28 09:04:50;;;;;;;7.45;2.60;;;;;;;-145.50;100.00;65435.88;4918268;29;20469;-64
2023/03/28 09:07:26;;;;;;;8.80;2.55;;;;;;;-145.50;100.00;65435.88;4901854;29;20048;-64
2023/03/28 09:10:47;;;;;;;10.52;2.97;;;;;;;-145.50;100.00;65435.88;4911465;29;20134;-64
2023/03/28 09:13:25;;;;;;;6.22;1.83;;;;;;;-145.50;100.00;65435.88;4847593;29;20053;-64
2023/03/28 09:16:13;;;;;;;7.00;1.90;;;;;;;-145.50;100.00;65435.88;4859955;29;20201;-65
2023/03/28 09:19:02;;;;;;;8.32;3.03;;;;;;;-145.50;100.00;65435.88;4873723;29;20071;-64
2023/03/28 09:22:01;;;;;;;7.20;2.13;;;;;;;-145.50;100.00;65435.88;4906969;29;20052;-64
2023/03/28 09:25:03;;;;;;;8.45;1.73;;;;;;;-145.50;100.00;65435.88;4906087;29;20501;-64
2023/03/28 09:27:38;;;;;;;10.10;2.00;;;;;;;-145.50;100.00;65435.88;4913259;29;20048;-64
2023/03/28 09:30:32;;;;;;;6.55;2.53;;;;;;;-145.50;100.00;65435.88;4906731;29;20143;-65
2023/03/28 09:33:04;;;;;;;8.90;2.90;;;;;;;-145.50;100.00;65435.88;4900737;29;20066;-66
2023/03/28 09:35:31;;;;;;;7.90;2.65;;;;;;;-145.50;100.00;65435.88;4900404;29;20609;-64
2023/03/28 09:38:05;;;;;;;4.97;1.67;;;;;;;-145.50;100.00;65435.88;4911025;29;20067;-65
2023/03/28 09:40:34;;;;;;;4.78;1.63;;;;;;;-145.50;100.00;65435.88;4907714;29;20568;-65
2023/03/28 09:43:24;;;;;;;7.07;2.15;;;;;;;-145.50;100.00;65435.88;4912083;29;20056;-65
2023/03/28 09:46:32;;;;;;;9.38;3.15;;;;;;;-145.50;100.00;65435.88;4900213;29;20058;-65
2023/03/28 09:48:59;;;;;;;7.15;2.58;;;;;;;-145.50;100.00;65435.88;4895211;29;20056;-66
2023/03/28 09:51:26;;;;;;;8.93;2.72;;;;;;;-145.50;100.00;65435.88;4903421;29;20524;-64
2023/03/28 09:53:52;;;;;;;8.45;3.15;;;;;;;-145.50;100.00;65435.88;4912190;29;20707;-65
2023/03/28 09:56:35;;;;;;;11.05;3.00;;;;;;;-145.50;100.00;65435.88;4911875;29;20055;-64
2023/03/28 09:59:04;;;;;;;7.50;3.00;;;;;;;-145.50;100.00;65435.88;4912326;29;20111;-65
2023/03/28 10:01:43;;;;;;;7.13;3.38;;;;;;;-145.50;100.00;65435.88;4908252;29;20127;-64
2023/03/28 10:04:20;;;;;;;6.10;2.65;;;;;;;-145.50;100.00;65435.88;4917126;29;20663;-65
2023/03/28 10:06:47;;;;;;;7.15;2.17;;;;;;;-145.50;100.00;65435.88;4911682;29;20560;-64
2023/03/28 10:09:28;;;;;;;6.80;1.70;;;;;;;-145.50;100.00;65435.88;4906040;29;20052;-65
2023/03/28 10:11:58;;;;;;;5.70;2.03;;;;;;;-145.50;100.00;65435.88;4918172;29;20154;-64
2023/03/28 10:14:40;;;;;;;5.50;2.42;;;;;;;-145.50;100.00;65435.88;4906433;29;20062;-65
2023/03/28 10:17:29;;;;;;;10.48;2.58;;;;;;;-145.50;100.00;65435.88;4907017;29;20428;-67
2023/03/28 10:20:03;;;;;;;6.85;2.83;;;;;;;-145.50;100.00;65435.88;4904504;29;20541;-64
2023/03/28 10:22:36;;;;;;;6.53;1.92;;;;;;;-145.50;100.00;65435.88;4912685;29;20520;-65
2023/03/28 10:25:05;;;;;;;7.55;2.45;;;;;;;-145.50;100.00;65435.88;4912357;29;20120;-65
2023/03/28 10:27:33;;;;;;;4.63;2.30;;;;;;;-145.50;100.00;65435.88;4907968;29;20127;-65
2023/03/28 10:30:31;;;;;;;4.88;2.75;;;;;;;-145.50;100.00;65435.88;4907205;29;20079;-64
2023/03/28 10:33:16;;;;;;;7.85;2.67;;;;;;;-145.50;100.00;65435.88;4902974;29;20120;-64
2023/03/28 10:35:45;;;;;;;8.65;2.88;;;;;;;-145.50;100.00;65435.88;4912552;29;20531;-66
2023/03/28 10:38:17;;;;;;;7.15;2.38;;;;;;;-145.50;100.00;65435.88;4904474;29;20887;-66
2023/03/28 10:41:05;;;;;;;6.05;2.25;;;;;;;-145.50;100.00;65435.88;4912053;29;20199;-65
2023/03/28 10:43:41;;;;;;;5.78;2.63;;;;;;;-145.50;100.00;65435.88;4902228;29;20505;-66
2023/03/28 10:46:16;;;;;;;9.98;2.67;;;;;;;-145.50;100.00;65435.88;4908047;29;20055;-65
2023/03/28 10:49:12;;;;;;;7.25;2.60;;;;;;;-145.50;100.00;65435.88;4906482;29;20108;-65
2023/03/28 10:51:41;;;;;;;9.75;2.83;;;;;;;-145.50;100.00;65435.88;4909161;29;20058;-65
2023/03/28 10:54:45;;;;;;;6.78;2.45;;;;;;;-145.50;100.00;65435.88;4904844;29;20064;-66
2023/03/28 10:57:54;;;;;;;6.93;2.40;;;;;;;-145.50;100.00;65435.88;4903732;29;20143;-66
2023/03/28 11:00:40;;;;;;;8.00;2.53;;;;;;;-145.50;100.00;65435.88;4898489;29;20111;-65
2023/03/28 11:03:23;;;;;;;8.93;2.53;;;;;;;-145.50;100.00;65435.88;4911686;29;20408;-65
2023/03/28 11:05:56;;;;;;;6.38;2.60;;;;;;;-145.50;100.00;65435.88;4921604;29;20048;-67
2023/03/28 11:08:57;;;;;;;6.85;2.15;;;;;;;-145.50;100.00;65435.88;4908608;29;20083;-66
2023/03/28 11:11:26;;;;;;;;;;;;;;;-145.50;100.00;65435.88;4903429;29;20052;-66
2023/03/28 11:14:15;;;;;;;6.55;1.98;;;;;;;-145.50;100.00;65435.88;4905635;29;19935;-65
2023/03/28 11:16:55;;;;;;;7.00;2.15;;;;;;;-145.50;100.00;65435.88;4905347;29;20059;-67
2023/03/28 11:19:34;;;;;;;6.00;1.65;;;;;;;-145.50;100.00;65435.88;4911124;29;20060;-65
2023/03/28 11:22:07;;;;;;;5.80;1.90;;;;;;;-145.50;100.00;65435.88;4911102;29;20528;-65
2023/03/28 11:25:03;;;;;;;6.90;2.25;;;;;;;-145.50;100.00;65435.88;4902683;29;20067;-65
2023/03/28 11:28:01;;;;;;;5.88;2.50;;;;;;;-145.50;100.00;65435.88;4897824;29;20087;-64
2023/03/28 11:30:31;;;;;;;7.88;2.38;;;;;;;-145.50;100.00;65435.88;4901575;29;20497;-65